sensor_id;sensor_type;location;lat;lon;timestamp;P1;durP1;ratioP1;P2;durP2;ratioP2
50851;SDS011;43953;45.508;-122.806;2023-05-19T00:00:12;3.10;;;2.63;;
50851;SDS011;43953;45.508;-122.806;2023-05-19T00:00:45;3.50;;;2.65;;
50851;SDS011;43953;45.508;-122.806;2023-05-19T00:01:17;4.38;;;2.60;;
50851;SDS011;43953;45.508;-122.806;2023-05-19T00:01:49;4.97;;;2.85;;
50851;SDS011;43953;45.508;-122.806;2023-05-19T00:02:22;2.78;;;2.53;;
50851;SDS011;43953;45.508;-122.806;2023-05-19T00:02:55;3.88;;;2.70;;
50851;SDS011;43953;45.508;-122.806;2023-05-19T00:03:27;3.65;;;3.10;;
50851;SDS011;43953;45.508;-122.806;2023-05-19T00:04:01;3.15;;;2.65;;
50851;SDS011;43953;45.508;-122.806;2023-05-19T00:04:35;3.08;;;2.55;;
50851;SDS011;43953;45.508;-122.806;2023-05-19T00:05:07;4.30;;;2.70;;
50851;SDS011;43953;45.508;-122.806;2023-05-19T00:05:41;2.53;;;2.42;;
50851;SDS011;43953;45.508;-122.806;2023-05-19T00:06:15;3.40;;;2.95;;
50851;SDS011;43953;45.508;-122.806;2023-05-19T00:06:49;3.42;;;3.13;;
50851;SDS011;43953;45.508;-122.806;2023-05-19T00:07:21;3.17;;;2.88;;
50851;SDS011;43953;45.508;-122.806;2023-05-19T00:08:00;4.00;;;2.80;;
50851;SDS011;43953;45.508;-122.806;2023-05-19T00:08:33;3.90;;;2.97;;
50851;SDS011;43953;45.508;-122.806;2023-05-19T00:09:07;4.47;;;2.70;;
50851;SDS011;43953;45.508;-122.806;2023-05-19T00:09:40;3.88;;;2.80;;
50851;SDS011;43953;45.508;-122.806;2023-05-19T00:10:12;3.63;;;2.90;;
50851;SDS011;43953;45.508;-122.806;2023-05-19T00:10:45;3.28;;;2.97;;
50851;SDS011;43953;45.508;-122.806;2023-05-19T00:11:17;3.08;;;2.53;;
50851;SDS011;43953;45.508;-122.806;2023-05-19T00:11:48;3.08;;;2.60;;
50851;SDS011;43953;45.508;-122.806;2023-05-19T00:12:20;2.97;;;2.63;;
50851;SDS011;43953;45.508;-122.806;2023-05-19T00:12:53;3.72;;;2.92;;
50851;SDS011;43953;45.508;-122.806;2023-05-19T00:13:26;2.67;;;2.47;;
50851;SDS011;43953;45.508;-122.806;2023-05-19T00:13:58;4.47;;;2.83;;
50851;SDS011;43953;45.508;-122.806;2023-05-19T00:14:30;2.95;;;2.70;;
50851;SDS011;43953;45.508;-122.806;2023-05-19T00:15:02;3.22;;;2.92;;
50851;SDS011;43953;45.508;-122.806;2023-05-19T00:15:35;4.32;;;2.55;;
50851;SDS011;43953;45.508;-122.806;2023-05-19T00:16:07;3.78;;;3.00;;
50851;SDS011;43953;45.508;-122.806;2023-05-19T00:16:39;3.58;;;3.10;;
50851;SDS011;43953;45.508;-122.806;2023-05-19T00:17:12;3.10;;;2.50;;
50851;SDS011;43953;45.508;-122.806;2023-05-19T00:17:44;4.32;;;2.90;;
50851;SDS011;43953;45.508;-122.806;2023-05-19T00:18:16;3.47;;;2.85;;
50851;SDS011;43953;45.508;-122.806;2023-05-19T00:18:48;4.15;;;2.80;;
50851;SDS011;43953;45.508;-122.806;2023-05-19T00:19:19;3.20;;;2.90;;
50851;SDS011;43953;45.508;-122.806;2023-05-19T00:19:51;4.00;;;2.67;;
50851;SDS011;43953;45.508;-122.806;2023-05-19T00:20:24;3.60;;;2.80;;
50851;SDS011;43953;45.508;-122.806;2023-05-19T00:20:56;3.70;;;2.83;;
50851;SDS011;43953;45.508;-122.806;2023-05-19T00:21:28;3.33;;;2.95;;
50851;SDS011;43953;45.508;-122.806;2023-05-19T00:22:01;3.03;;;2.83;;
50851;SDS011;43953;45.508;-122.806;2023-05-19T00:22:32;3.88;;;2.88;;
50851;SDS011;43953;45.508;-122.806;2023-05-19T00:23:04;4.15;;;2.83;;
50851;SDS011;43953;45.508;-122.806;2023-05-19T00:23:36;3.40;;;3.10;;
50851;SDS011;43953;45.508;-122.806;2023-05-19T00:24:08;4.18;;;2.95;;
50851;SDS011;43953;45.508;-122.806;2023-05-19T00:24:39;4.20;;;2.85;;
50851;SDS011;43953;45.508;-122.806;2023-05-19T00:25:11;3.70;;;3.30;;
50851;SDS011;43953;45.508;-122.806;2023-05-19T00:25:43;7.45;;;3.40;;
50851;SDS011;43953;45.508;-122.806;2023-05-19T00:26:15;2.88;;;2.60;;
50851;SDS011;43953;45.508;-122.806;2023-05-19T00:26:46;3.65;;;2.65;;
50851;SDS011;43953;45.508;-122.806;2023-05-19T00:27:18;3.50;;;2.90;;
50851;SDS011;43953;45.508;-122.806;2023-05-19T00:27:50;3.85;;;2.85;;
50851;SDS011;43953;45.508;-122.806;2023-05-19T00:28:21;3.70;;;2.85;;
50851;SDS011;43953;45.508;-122.806;2023-05-19T00:28:53;3.78;;;2.80;;
50851;SDS011;43953;45.508;-122.806;2023-05-19T00:29:25;3.72;;;2.80;;
50851;SDS011;43953;45.508;-122.806;2023-05-19T00:29:57;3.97;;;2.58;;
50851;SDS011;43953;45.508;-122.806;2023-05-19T00:30:29;3.15;;;2.75;;
50851;SDS011;43953;45.508;-122.806;2023-05-19T00:31:01;3.15;;;2.83;;
50851;SDS011;43953;45.508;-122.806;2023-05-19T00:31:36;3.20;;;2.95;;
50851;SDS011;43953;45.508;-122.806;2023-05-19T00:32:08;2.95;;;2.75;;
50851;SDS011;43953;45.508;-122.806;2023-05-19T00:32:40;4.32;;;3.03;;
50851;SDS011;43953;45.508;-122.806;2023-05-19T00:33:11;4.43;;;3.00;;
50851;SDS011;43953;45.508;-122.806;2023-05-19T00:33:43;3.42;;;3.13;;
50851;SDS011;43953;45.508;-122.806;2023-05-19T00:34:15;3.13;;;2.83;;
50851;SDS011;43953;45.508;-122.806;2023-05-19T00:34:46;3.28;;;2.90;;
50851;SDS011;43953;45.508;-122.806;2023-05-19T00:35:19;3.75;;;3.03;;
50851;SDS011;43953;45.508;-122.806;2023-05-19T00:35:51;4.38;;;2.92;;
50851;SDS011;43953;45.508;-122.806;2023-05-19T00:36:23;3.60;;;2.88;;
50851;SDS011;43953;45.508;-122.806;2023-05-19T00:36:55;2.97;;;2.70;;
50851;SDS011;43953;45.508;-122.806;2023-05-19T00:37:27;3.78;;;3.25;;
50851;SDS011;43953;45.508;-122.806;2023-05-19T00:37:58;3.50;;;3.20;;
50851;SDS011;43953;45.508;-122.806;2023-05-19T00:38:30;3.38;;;3.08;;
50851;SDS011;43953;45.508;-122.806;2023-05-19T00:39:03;3.65;;;3.25;;
50851;SDS011;43953;45.508;-122.806;2023-05-19T00:39:35;3.78;;;3.33;;
50851;SDS011;43953;45.508;-122.806;2023-05-19T00:40:07;4.10;;;3.20;;
50851;SDS011;43953;45.508;-122.806;2023-05-19T00:40:40;3.45;;;3.15;;
50851;SDS011;43953;45.508;-122.806;2023-05-19T00:41:12;3.47;;;3.17;;
50851;SDS011;43953;45.508;-122.806;2023-05-19T00:41:44;5.30;;;3.38;;
50851;SDS011;43953;45.508;-122.806;2023-05-19T00:42:15;3.53;;;3.13;;
50851;SDS011;43953;45.508;-122.806;2023-05-19T00:42:47;3.88;;;3.30;;
50851;SDS011;43953;45.508;-122.806;2023-05-19T00:43:19;3.88;;;2.83;;
50851;SDS011;43953;45.508;-122.806;2023-05-19T00:43:51;4.40;;;2.95;;
50851;SDS011;43953;45.508;-122.806;2023-05-19T00:44:23;3.35;;;3.05;;
50851;SDS011;43953;45.508;-122.806;2023-05-19T00:44:55;3.38;;;3.08;;
50851;SDS011;43953;45.508;-122.806;2023-05-19T00:45:26;3.50;;;3.20;;
50851;SDS011;43953;45.508;-122.806;2023-05-19T00:45:59;3.75;;;3.28;;
50851;SDS011;43953;45.508;-122.806;2023-05-19T00:46:30;3.75;;;3.45;;
50851;SDS011;43953;45.508;-122.806;2023-05-19T00:47:02;3.47;;;3.03;;
50851;SDS011;43953;45.508;-122.806;2023-05-19T00:47:34;4.00;;;3.33;;
50851;SDS011;43953;45.508;-122.806;2023-05-19T00:48:06;3.92;;;3.55;;
50851;SDS011;43953;45.508;-122.806;2023-05-19T00:48:37;3.40;;;3.10;;
50851;SDS011;43953;45.508;-122.806;2023-05-19T00:49:09;3.88;;;3.40;;
50851;SDS011;43953;45.508;-122.806;2023-05-19T00:49:41;3.45;;;3.15;;
50851;SDS011;43953;45.508;-122.806;2023-05-19T00:50:12;4.53;;;3.08;;
50851;SDS011;43953;45.508;-122.806;2023-05-19T00:50:44;3.42;;;3.00;;
50851;SDS011;43953;45.508;-122.806;2023-05-19T00:51:16;3.47;;;3.17;;
50851;SDS011;43953;45.508;-122.806;2023-05-19T00:51:48;3.10;;;2.88;;
50851;SDS011;43953;45.508;-122.806;2023-05-19T00:52:20;3.17;;;2.85;;
50851;SDS011;43953;45.508;-122.806;2023-05-19T00:52:52;4.18;;;3.42;;
50851;SDS011;43953;45.508;-122.806;2023-05-19T00:53:26;3.60;;;3.22;;
50851;SDS011;43953;45.508;-122.806;2023-05-19T00:53:59;3.30;;;3.00;;
50851;SDS011;43953;45.508;-122.806;2023-05-19T00:54:32;3.92;;;3.20;;
50851;SDS011;43953;45.508;-122.806;2023-05-19T00:55:04;3.40;;;3.08;;
50851;SDS011;43953;45.508;-122.806;2023-05-19T00:55:38;3.10;;;2.90;;
50851;SDS011;43953;45.508;-122.806;2023-05-19T00:56:10;3.30;;;3.00;;
50851;SDS011;43953;45.508;-122.806;2023-05-19T00:56:42;3.38;;;3.00;;
50851;SDS011;43953;45.508;-122.806;2023-05-19T00:57:14;3.85;;;3.33;;
50851;SDS011;43953;45.508;-122.806;2023-05-19T00:57:45;3.47;;;3.17;;
50851;SDS011;43953;45.508;-122.806;2023-05-19T00:58:19;3.67;;;3.38;;
50851;SDS011;43953;45.508;-122.806;2023-05-19T00:58:51;3.63;;;3.25;;
50851;SDS011;43953;45.508;-122.806;2023-05-19T00:59:23;3.63;;;3.28;;
50851;SDS011;43953;45.508;-122.806;2023-05-19T00:59:55;4.97;;;3.28;;
50851;SDS011;43953;45.508;-122.806;2023-05-19T01:00:27;3.67;;;3.25;;
50851;SDS011;43953;45.508;-122.806;2023-05-19T01:01:00;3.60;;;3.30;;
50851;SDS011;43953;45.508;-122.806;2023-05-19T01:01:36;3.33;;;3.05;;
50851;SDS011;43953;45.508;-122.806;2023-05-19T01:02:09;3.40;;;3.10;;
50851;SDS011;43953;45.508;-122.806;2023-05-19T01:02:41;3.40;;;3.08;;
50851;SDS011;43953;45.508;-122.806;2023-05-19T01:03:13;3.22;;;3.03;;
50851;SDS011;43953;45.508;-122.806;2023-05-19T01:03:50;2.92;;;2.72;;
50851;SDS011;43953;45.508;-122.806;2023-05-19T01:04:22;3.03;;;2.83;;
50851;SDS011;43953;45.508;-122.806;2023-05-19T01:04:55;4.38;;;3.28;;
50851;SDS011;43953;45.508;-122.806;2023-05-19T01:05:27;3.10;;;2.90;;
50851;SDS011;43953;45.508;-122.806;2023-05-19T01:05:59;3.33;;;3.03;;
50851;SDS011;43953;45.508;-122.806;2023-05-19T01:06:39;3.47;;;3.17;;
50851;SDS011;43953;45.508;-122.806;2023-05-19T01:07:11;3.03;;;2.83;;
50851;SDS011;43953;45.508;-122.806;2023-05-19T01:07:43;3.25;;;2.95;;
50851;SDS011;43953;45.508;-122.806;2023-05-19T01:08:16;3.33;;;3.00;;
50851;SDS011;43953;45.508;-122.806;2023-05-19T01:08:48;3.75;;;3.47;;
50851;SDS011;43953;45.508;-122.806;2023-05-19T01:09:21;3.53;;;3.22;;
50851;SDS011;43953;45.508;-122.806;2023-05-19T01:09:54;3.72;;;3.38;;
50851;SDS011;43953;45.508;-122.806;2023-05-19T01:10:26;3.30;;;3.10;;
50851;SDS011;43953;45.508;-122.806;2023-05-19T01:10:58;3.25;;;2.95;;
50851;SDS011;43953;45.508;-122.806;2023-05-19T01:11:30;3.83;;;2.90;;
50851;SDS011;43953;45.508;-122.806;2023-05-19T01:12:02;3.25;;;3.05;;
50851;SDS011;43953;45.508;-122.806;2023-05-19T01:12:34;3.47;;;3.17;;
50851;SDS011;43953;45.508;-122.806;2023-05-19T01:13:06;3.00;;;2.80;;
50851;SDS011;43953;45.508;-122.806;2023-05-19T01:13:39;3.25;;;3.03;;
50851;SDS011;43953;45.508;-122.806;2023-05-19T01:14:11;4.15;;;3.28;;
50851;SDS011;43953;45.508;-122.806;2023-05-19T01:14:43;3.38;;;3.10;;
50851;SDS011;43953;45.508;-122.806;2023-05-19T01:15:15;3.85;;;3.30;;
50851;SDS011;43953;45.508;-122.806;2023-05-19T01:16:34;3.20;;;3.00;;
50851;SDS011;43953;45.508;-122.806;2023-05-19T01:17:14;3.17;;;2.97;;
50851;SDS011;43953;45.508;-122.806;2023-05-19T01:18:40;3.40;;;3.00;;
50851;SDS011;43953;45.508;-122.806;2023-05-19T01:20:20;3.10;;;2.88;;
50851;SDS011;43953;45.508;-122.806;2023-05-19T01:21:05;3.53;;;3.13;;
50851;SDS011;43953;45.508;-122.806;2023-05-19T01:23:32;3.67;;;3.38;;
50851;SDS011;43953;45.508;-122.806;2023-05-19T01:24:41;3.22;;;2.90;;
50851;SDS011;43953;45.508;-122.806;2023-05-19T01:28:31;3.70;;;3.40;;
50851;SDS011;43953;45.508;-122.806;2023-05-19T01:31:02;3.35;;;3.10;;
50851;SDS011;43953;45.508;-122.806;2023-05-19T01:31:37;3.50;;;3.20;;
50851;SDS011;43953;45.508;-122.806;2023-05-19T01:32:12;3.75;;;3.03;;
50851;SDS011;43953;45.508;-122.806;2023-05-19T01:32:50;3.20;;;3.00;;
50851;SDS011;43953;45.508;-122.806;2023-05-19T01:33:24;3.55;;;3.25;;
50851;SDS011;43953;45.508;-122.806;2023-05-19T01:33:58;3.47;;;3.17;;
50851;SDS011;43953;45.508;-122.806;2023-05-19T01:34:31;3.78;;;3.10;;
50851;SDS011;43953;45.508;-122.806;2023-05-19T01:35:04;3.35;;;3.15;;
50851;SDS011;43953;45.508;-122.806;2023-05-19T01:35:39;3.85;;;3.55;;
50851;SDS011;43953;45.508;-122.806;2023-05-19T01:36:12;3.78;;;3.47;;
50851;SDS011;43953;45.508;-122.806;2023-05-19T01:36:45;3.20;;;3.00;;
50851;SDS011;43953;45.508;-122.806;2023-05-19T01:37:19;3.28;;;3.08;;
50851;SDS011;43953;45.508;-122.806;2023-05-19T01:37:53;3.50;;;3.30;;
50851;SDS011;43953;45.508;-122.806;2023-05-19T01:38:28;3.58;;;3.28;;
50851;SDS011;43953;45.508;-122.806;2023-05-19T01:39:02;3.50;;;3.30;;
50851;SDS011;43953;45.508;-122.806;2023-05-19T01:39:34;3.70;;;3.20;;
50851;SDS011;43953;45.508;-122.806;2023-05-19T01:40:07;3.65;;;3.17;;
50851;SDS011;43953;45.508;-122.806;2023-05-19T01:40:40;3.20;;;3.00;;
50851;SDS011;43953;45.508;-122.806;2023-05-19T01:41:13;3.67;;;2.92;;
50851;SDS011;43953;45.508;-122.806;2023-05-19T01:41:46;3.92;;;3.30;;
50851;SDS011;43953;45.508;-122.806;2023-05-19T01:42:18;3.67;;;3.38;;
50851;SDS011;43953;45.508;-122.806;2023-05-19T01:42:54;3.15;;;2.95;;
50851;SDS011;43953;45.508;-122.806;2023-05-19T01:43:27;3.60;;;3.30;;
50851;SDS011;43953;45.508;-122.806;2023-05-19T01:43:59;3.03;;;2.83;;
50851;SDS011;43953;45.508;-122.806;2023-05-19T01:44:32;3.33;;;3.13;;
50851;SDS011;43953;45.508;-122.806;2023-05-19T01:45:04;3.83;;;3.33;;
50851;SDS011;43953;45.508;-122.806;2023-05-19T01:45:40;3.33;;;3.03;;
50851;SDS011;43953;45.508;-122.806;2023-05-19T01:46:12;3.42;;;3.13;;
50851;SDS011;43953;45.508;-122.806;2023-05-19T01:46:45;3.25;;;3.00;;
50851;SDS011;43953;45.508;-122.806;2023-05-19T01:47:17;3.25;;;2.95;;
50851;SDS011;43953;45.508;-122.806;2023-05-19T01:47:51;4.72;;;2.90;;
50851;SDS011;43953;45.508;-122.806;2023-05-19T01:48:25;2.80;;;2.60;;
50851;SDS011;43953;45.508;-122.806;2023-05-19T01:48:58;3.50;;;3.20;;
50851;SDS011;43953;45.508;-122.806;2023-05-19T01:49:30;3.20;;;3.00;;
50851;SDS011;43953;45.508;-122.806;2023-05-19T01:50:02;3.17;;;2.97;;
50851;SDS011;43953;45.508;-122.806;2023-05-19T01:50:34;3.33;;;3.03;;
50851;SDS011;43953;45.508;-122.806;2023-05-19T01:51:06;3.58;;;3.20;;
50851;SDS011;43953;45.508;-122.806;2023-05-19T01:51:38;4.60;;;3.38;;
50851;SDS011;43953;45.508;-122.806;2023-05-19T01:52:10;3.97;;;3.10;;
50851;SDS011;43953;45.508;-122.806;2023-05-19T01:52:42;3.50;;;3.20;;
50851;SDS011;43953;45.508;-122.806;2023-05-19T01:53:14;3.40;;;3.20;;
50851;SDS011;43953;45.508;-122.806;2023-05-19T01:53:45;3.95;;;3.05;;
50851;SDS011;43953;45.508;-122.806;2023-05-19T01:54:17;3.05;;;2.85;;
50851;SDS011;43953;45.508;-122.806;2023-05-19T01:54:49;3.63;;;2.90;;
50851;SDS011;43953;45.508;-122.806;2023-05-19T01:55:20;3.22;;;2.92;;
50851;SDS011;43953;45.508;-122.806;2023-05-19T01:55:54;3.40;;;3.10;;
50851;SDS011;43953;45.508;-122.806;2023-05-19T01:56:32;3.22;;;3.00;;
50851;SDS011;43953;45.508;-122.806;2023-05-19T01:57:18;3.38;;;2.95;;
50851;SDS011;43953;45.508;-122.806;2023-05-19T01:58:06;3.72;;;3.30;;
50851;SDS011;43953;45.508;-122.806;2023-05-19T01:59:26;3.70;;;3.22;;
50851;SDS011;43953;45.508;-122.806;2023-05-19T02:00:53;3.50;;;3.20;;
50851;SDS011;43953;45.508;-122.806;2023-05-19T02:01:36;3.17;;;2.97;;
50851;SDS011;43953;45.508;-122.806;2023-05-19T02:02:36;3.13;;;2.92;;
50851;SDS011;43953;45.508;-122.806;2023-05-19T02:03:17;3.60;;;3.30;;
50851;SDS011;43953;45.508;-122.806;2023-05-19T02:04:00;3.83;;;3.20;;
50851;SDS011;43953;45.508;-122.806;2023-05-19T02:04:44;3.30;;;3.00;;
50851;SDS011;43953;45.508;-122.806;2023-05-19T02:05:44;2.92;;;2.63;;
50851;SDS011;43953;45.508;-122.806;2023-05-19T02:07:19;3.20;;;2.85;;
50851;SDS011;43953;45.508;-122.806;2023-05-19T02:07:36;3.10;;;2.83;;
50851;SDS011;43953;45.508;-122.806;2023-05-19T02:08:23;3.03;;;2.83;;
50851;SDS011;43953;45.508;-122.806;2023-05-19T02:09:06;3.35;;;3.05;;
50851;SDS011;43953;45.508;-122.806;2023-05-19T02:10:29;3.22;;;3.00;;
50851;SDS011;43953;45.508;-122.806;2023-05-19T02:11:06;3.47;;;3.17;;
50851;SDS011;43953;45.508;-122.806;2023-05-19T02:13:07;3.67;;;3.38;;
50851;SDS011;43953;45.508;-122.806;2023-05-19T02:13:43;2.90;;;2.65;;
50851;SDS011;43953;45.508;-122.806;2023-05-19T02:14:20;3.30;;;3.03;;
50851;SDS011;43953;45.508;-122.806;2023-05-19T02:15:16;3.42;;;3.00;;
50851;SDS011;43953;45.508;-122.806;2023-05-19T02:15:51;3.35;;;3.05;;
50851;SDS011;43953;45.508;-122.806;2023-05-19T02:16:26;4.13;;;3.20;;
50851;SDS011;43953;45.508;-122.806;2023-05-19T02:16:59;3.40;;;3.10;;
50851;SDS011;43953;45.508;-122.806;2023-05-19T02:17:32;3.30;;;3.10;;
50851;SDS011;43953;45.508;-122.806;2023-05-19T02:18:09;3.53;;;3.22;;
50851;SDS011;43953;45.508;-122.806;2023-05-19T02:18:41;3.22;;;3.00;;
50851;SDS011;43953;45.508;-122.806;2023-05-19T02:19:24;3.72;;;3.20;;
50851;SDS011;43953;45.508;-122.806;2023-05-19T02:19:57;3.60;;;3.15;;
50851;SDS011;43953;45.508;-122.806;2023-05-19T02:20:30;3.60;;;3.30;;
50851;SDS011;43953;45.508;-122.806;2023-05-19T02:21:01;3.35;;;3.05;;
50851;SDS011;43953;45.508;-122.806;2023-05-19T02:21:33;3.35;;;3.08;;
50851;SDS011;43953;45.508;-122.806;2023-05-19T02:22:05;3.38;;;3.17;;
50851;SDS011;43953;45.508;-122.806;2023-05-19T02:22:37;3.55;;;3.25;;
50851;SDS011;43953;45.508;-122.806;2023-05-19T02:23:09;3.17;;;2.88;;
50851;SDS011;43953;45.508;-122.806;2023-05-19T02:23:40;3.25;;;2.92;;
50851;SDS011;43953;45.508;-122.806;2023-05-19T02:24:12;3.42;;;3.20;;
50851;SDS011;43953;45.508;-122.806;2023-05-19T02:24:44;3.38;;;3.03;;
50851;SDS011;43953;45.508;-122.806;2023-05-19T02:25:17;3.05;;;2.85;;
50851;SDS011;43953;45.508;-122.806;2023-05-19T02:25:49;2.80;;;2.60;;
50851;SDS011;43953;45.508;-122.806;2023-05-19T02:26:20;3.15;;;2.95;;
50851;SDS011;43953;45.508;-122.806;2023-05-19T02:26:52;3.20;;;2.90;;
50851;SDS011;43953;45.508;-122.806;2023-05-19T02:27:24;2.90;;;2.70;;
50851;SDS011;43953;45.508;-122.806;2023-05-19T02:27:57;3.63;;;3.20;;
50851;SDS011;43953;45.508;-122.806;2023-05-19T02:28:29;3.50;;;3.10;;
50851;SDS011;43953;45.508;-122.806;2023-05-19T02:29:00;3.22;;;2.92;;
50851;SDS011;43953;45.508;-122.806;2023-05-19T02:29:32;3.33;;;3.08;;
50851;SDS011;43953;45.508;-122.806;2023-05-19T02:30:04;2.92;;;2.72;;
50851;SDS011;43953;45.508;-122.806;2023-05-19T02:30:38;3.33;;;3.13;;
50851;SDS011;43953;45.508;-122.806;2023-05-19T02:31:09;2.90;;;2.70;;
50851;SDS011;43953;45.508;-122.806;2023-05-19T02:31:41;3.28;;;2.90;;
50851;SDS011;43953;45.508;-122.806;2023-05-19T02:32:13;3.30;;;3.00;;
50851;SDS011;43953;45.508;-122.806;2023-05-19T02:32:45;3.05;;;2.80;;
50851;SDS011;43953;45.508;-122.806;2023-05-19T02:33:17;3.03;;;2.80;;
50851;SDS011;43953;45.508;-122.806;2023-05-19T02:33:49;3.00;;;2.80;;
50851;SDS011;43953;45.508;-122.806;2023-05-19T02:34:21;3.30;;;3.00;;
50851;SDS011;43953;45.508;-122.806;2023-05-19T02:34:53;3.10;;;2.90;;
50851;SDS011;43953;45.508;-122.806;2023-05-19T02:35:26;3.53;;;3.22;;
50851;SDS011;43953;45.508;-122.806;2023-05-19T02:35:57;3.15;;;2.90;;
50851;SDS011;43953;45.508;-122.806;2023-05-19T02:36:33;3.38;;;3.10;;
50851;SDS011;43953;45.508;-122.806;2023-05-19T02:37:06;3.20;;;3.00;;
50851;SDS011;43953;45.508;-122.806;2023-05-19T02:37:38;2.92;;;2.72;;
50851;SDS011;43953;45.508;-122.806;2023-05-19T02:38:10;2.78;;;2.60;;
50851;SDS011;43953;45.508;-122.806;2023-05-19T02:38:41;3.20;;;2.97;;
50851;SDS011;43953;45.508;-122.806;2023-05-19T02:39:13;3.28;;;3.00;;
50851;SDS011;43953;45.508;-122.806;2023-05-19T02:39:45;3.03;;;2.75;;
50851;SDS011;43953;45.508;-122.806;2023-05-19T02:40:17;3.25;;;2.95;;
50851;SDS011;43953;45.508;-122.806;2023-05-19T02:40:50;3.30;;;3.10;;
50851;SDS011;43953;45.508;-122.806;2023-05-19T02:41:25;3.03;;;2.83;;
50851;SDS011;43953;45.508;-122.806;2023-05-19T02:41:56;3.15;;;2.95;;
50851;SDS011;43953;45.508;-122.806;2023-05-19T02:42:28;3.92;;;3.00;;
50851;SDS011;43953;45.508;-122.806;2023-05-19T02:43:00;3.13;;;2.92;;
50851;SDS011;43953;45.508;-122.806;2023-05-19T02:43:32;3.10;;;2.83;;
50851;SDS011;43953;45.508;-122.806;2023-05-19T02:44:03;3.10;;;2.80;;
50851;SDS011;43953;45.508;-122.806;2023-05-19T02:44:35;3.10;;;2.80;;
50851;SDS011;43953;45.508;-122.806;2023-05-19T02:45:07;3.17;;;2.97;;
50851;SDS011;43953;45.508;-122.806;2023-05-19T02:45:39;3.30;;;2.90;;
50851;SDS011;43953;45.508;-122.806;2023-05-19T02:46:10;3.50;;;3.22;;
50851;SDS011;43953;45.508;-122.806;2023-05-19T02:46:42;3.13;;;2.85;;
50851;SDS011;43953;45.508;-122.806;2023-05-19T02:47:14;3.05;;;2.85;;
50851;SDS011;43953;45.508;-122.806;2023-05-19T02:47:46;3.08;;;2.80;;
50851;SDS011;43953;45.508;-122.806;2023-05-19T02:48:17;3.05;;;2.85;;
50851;SDS011;43953;45.508;-122.806;2023-05-19T02:48:49;3.10;;;2.90;;
50851;SDS011;43953;45.508;-122.806;2023-05-19T02:49:22;3.50;;;3.17;;
50851;SDS011;43953;45.508;-122.806;2023-05-19T02:49:53;3.40;;;3.05;;
50851;SDS011;43953;45.508;-122.806;2023-05-19T02:50:25;3.25;;;2.95;;
50851;SDS011;43953;45.508;-122.806;2023-05-19T02:50:57;3.17;;;2.97;;
50851;SDS011;43953;45.508;-122.806;2023-05-19T02:51:28;2.90;;;2.70;;
50851;SDS011;43953;45.508;-122.806;2023-05-19T02:52:01;3.25;;;2.95;;
50851;SDS011;43953;45.508;-122.806;2023-05-19T02:52:33;3.85;;;3.00;;
50851;SDS011;43953;45.508;-122.806;2023-05-19T02:53:05;3.03;;;2.83;;
50851;SDS011;43953;45.508;-122.806;2023-05-19T02:53:36;2.88;;;2.53;;
50851;SDS011;43953;45.508;-122.806;2023-05-19T02:54:08;2.88;;;2.58;;
50851;SDS011;43953;45.508;-122.806;2023-05-19T02:54:40;3.30;;;2.70;;
50851;SDS011;43953;45.508;-122.806;2023-05-19T02:55:11;2.97;;;2.78;;
50851;SDS011;43953;45.508;-122.806;2023-05-19T02:55:46;3.00;;;2.70;;
50851;SDS011;43953;45.508;-122.806;2023-05-19T02:56:18;3.35;;;2.65;;
50851;SDS011;43953;45.508;-122.806;2023-05-19T02:56:51;2.88;;;2.67;;
50851;SDS011;43953;45.508;-122.806;2023-05-19T02:57:22;2.85;;;2.60;;
50851;SDS011;43953;45.508;-122.806;2023-05-19T02:57:54;2.70;;;2.50;;
50851;SDS011;43953;45.508;-122.806;2023-05-19T02:58:26;2.80;;;2.60;;
50851;SDS011;43953;45.508;-122.806;2023-05-19T02:58:58;3.03;;;2.70;;
50851;SDS011;43953;45.508;-122.806;2023-05-19T02:59:29;2.83;;;2.50;;
50851;SDS011;43953;45.508;-122.806;2023-05-19T03:00:02;2.90;;;2.70;;
50851;SDS011;43953;45.508;-122.806;2023-05-19T03:00:36;3.70;;;2.30;;
50851;SDS011;43953;45.508;-122.806;2023-05-19T03:01:08;3.78;;;2.70;;
50851;SDS011;43953;45.508;-122.806;2023-05-19T03:01:40;2.75;;;2.53;;
50851;SDS011;43953;45.508;-122.806;2023-05-19T03:02:12;2.42;;;2.28;;
50851;SDS011;43953;45.508;-122.806;2023-05-19T03:02:44;2.70;;;2.50;;
50851;SDS011;43953;45.508;-122.806;2023-05-19T03:03:15;2.83;;;2.63;;
50851;SDS011;43953;45.508;-122.806;2023-05-19T03:03:47;2.33;;;2.22;;
50851;SDS011;43953;45.508;-122.806;2023-05-19T03:04:19;2.70;;;2.50;;
50851;SDS011;43953;45.508;-122.806;2023-05-19T03:04:51;2.88;;;2.60;;
50851;SDS011;43953;45.508;-122.806;2023-05-19T03:05:23;2.88;;;2.67;;
50851;SDS011;43953;45.508;-122.806;2023-05-19T03:05:54;3.10;;;2.67;;
50851;SDS011;43953;45.508;-122.806;2023-05-19T03:06:26;2.55;;;2.35;;
50851;SDS011;43953;45.508;-122.806;2023-05-19T03:06:58;3.08;;;2.63;;
50851;SDS011;43953;45.508;-122.806;2023-05-19T03:07:29;2.88;;;2.70;;
50851;SDS011;43953;45.508;-122.806;2023-05-19T03:08:01;3.00;;;2.70;;
50851;SDS011;43953;45.508;-122.806;2023-05-19T03:08:33;2.80;;;2.60;;
50851;SDS011;43953;45.508;-122.806;2023-05-19T03:09:06;3.80;;;2.58;;
50851;SDS011;43953;45.508;-122.806;2023-05-19T03:09:38;3.88;;;2.50;;
50851;SDS011;43953;45.508;-122.806;2023-05-19T03:10:10;2.53;;;2.33;;
50851;SDS011;43953;45.508;-122.806;2023-05-19T03:10:41;3.45;;;2.65;;
50851;SDS011;43953;45.508;-122.806;2023-05-19T03:11:13;2.45;;;2.35;;
50851;SDS011;43953;45.508;-122.806;2023-05-19T03:11:45;3.05;;;2.85;;
50851;SDS011;43953;45.508;-122.806;2023-05-19T03:12:16;2.78;;;2.60;;
50851;SDS011;43953;45.508;-122.806;2023-05-19T03:12:48;2.70;;;2.50;;
50851;SDS011;43953;45.508;-122.806;2023-05-19T03:13:20;2.67;;;2.47;;
50851;SDS011;43953;45.508;-122.806;2023-05-19T03:13:52;3.05;;;2.85;;
50851;SDS011;43953;45.508;-122.806;2023-05-19T03:14:24;2.95;;;2.65;;
50851;SDS011;43953;45.508;-122.806;2023-05-19T03:14:55;3.00;;;2.80;;
50851;SDS011;43953;45.508;-122.806;2023-05-19T03:15:27;3.03;;;2.83;;
50851;SDS011;43953;45.508;-122.806;2023-05-19T03:15:59;2.80;;;2.55;;
50851;SDS011;43953;45.508;-122.806;2023-05-19T03:16:31;3.55;;;2.65;;
50851;SDS011;43953;45.508;-122.806;2023-05-19T03:17:03;3.60;;;2.85;;
50851;SDS011;43953;45.508;-122.806;2023-05-19T03:17:37;2.35;;;2.25;;
50851;SDS011;43953;45.508;-122.806;2023-05-19T03:18:09;3.25;;;2.35;;
50851;SDS011;43953;45.508;-122.806;2023-05-19T03:18:42;2.38;;;2.28;;
50851;SDS011;43953;45.508;-122.806;2023-05-19T03:19:14;2.80;;;2.60;;
50851;SDS011;43953;45.508;-122.806;2023-05-19T03:19:46;2.95;;;2.63;;
50851;SDS011;43953;45.508;-122.806;2023-05-19T03:20:17;2.72;;;2.53;;
50851;SDS011;43953;45.508;-122.806;2023-05-19T03:20:49;2.90;;;2.70;;
50851;SDS011;43953;45.508;-122.806;2023-05-19T03:21:23;2.65;;;2.45;;
50851;SDS011;43953;45.508;-122.806;2023-05-19T03:21:55;2.50;;;2.30;;
50851;SDS011;43953;45.508;-122.806;2023-05-19T03:22:27;3.58;;;2.40;;
50851;SDS011;43953;45.508;-122.806;2023-05-19T03:22:59;2.70;;;2.50;;
50851;SDS011;43953;45.508;-122.806;2023-05-19T03:23:31;2.72;;;2.53;;
50851;SDS011;43953;45.508;-122.806;2023-05-19T03:24:03;2.80;;;2.60;;
50851;SDS011;43953;45.508;-122.806;2023-05-19T03:24:35;2.60;;;2.40;;
50851;SDS011;43953;45.508;-122.806;2023-05-19T03:25:07;2.85;;;2.65;;
50851;SDS011;43953;45.508;-122.806;2023-05-19T03:25:39;2.50;;;2.30;;